Flight Track Log - Related Links

Times and Time Zones

All times are in EDT time to prevent confusion due to time zone crossing. See the N6711L flight status page for this flight to view local times or setup timezone preferences in your user account.

Time Position Orientation Groundspeed Altitude Reporting Facility
EDT Latitude Longitude Course Direction KTS MPH feet Rate Location/Type
Fri 10:07:10 AM 26.1603 -81.7536 180° South 140 161 900  Level Miami Center
Fri 10:09:00 AM 26.0860 -81.7586 183° South  Level FlightAware Approximate
Fri 10:11:00 AM 25.9064 -81.7667 180° South  Level FlightAware Approximate
Fri 10:12:00 AM 25.8658 -81.7667 180° South  Level FlightAware Approximate
Fri 10:16:00 AM 25.8018 -81.7588 180° South  Level Estimated
Fri 10:17:00 AM 25.7612 -81.7588 179° South  Level Estimated
Fri 10:18:00 AM 25.7206 -81.7584 179° South  Level FlightAware Approximate
Fri 10:19:00 AM 25.6801 -81.7579 179° South  Level FlightAware Approximate
Fri 10:20:00 AM 25.6395 -81.7575 179° South  Level FlightAware Approximate
Fri 10:21:00 AM 25.5989 -81.7570 179° South  Level FlightAware Approximate
Fri 10:22:00 AM 25.5583 -81.7566 179° South  Level FlightAware Approximate
Fri 10:23:00 AM 25.5177 -81.7561 179° South  Level FlightAware Approximate
Fri 10:24:00 AM 25.4771 -81.7557 179° South  Level FlightAware Approximate
Fri 10:25:00 AM 25.4365 -81.7552 179° South  Level FlightAware Approximate
Fri 10:26:00 AM 25.3959 -81.7548 179° South  Level FlightAware Approximate
Fri 10:27:00 AM 25.3553 -81.7543 179° South  Level FlightAware Approximate
Fri 10:28:00 AM 25.3147 -81.7539 179° South  Level FlightAware Approximate
Fri 10:29:00 AM 25.2741 -81.7534 179° South  Level FlightAware Approximate
Fri 10:30:00 AM 25.2335 -81.7530 179° South  Level FlightAware Approximate
Fri 10:31:00 AM 25.1930 -81.7525 179° South  Level FlightAware Approximate
Fri 10:32:00 AM 25.1524 -81.7521 179° South  Level FlightAware Approximate
Fri 10:33:00 AM 25.1118 -81.7516 179° South  Level FlightAware Approximate
Fri 10:34:00 AM 25.0712 -81.7512 179° South  Level FlightAware Approximate
Fri 10:35:00 AM 25.0306 -81.7507 179° South  Level FlightAware Approximate
Fri 10:36:00 AM 24.9900 -81.7503 179° South  Level FlightAware Approximate
Fri 10:37:00 AM 24.9494 -81.7511 180° South  Level Estimated
Fri 10:38:00 AM 24.9088 -81.7520 180° South  Level Estimated
Fri 10:39:00 AM 24.8682 -81.7529 180° South  Level Estimated
Fri 10:40:00 AM 24.8277 -81.7524 179° South  Level FlightAware Approximate
Fri 10:41:00 AM 24.7871 -81.7519 179° South  Level FlightAware Approximate
Fri 10:42:00 AM 24.7465 -81.7514 179° South  Level FlightAware Approximate
Fri 10:43:00 AM 24.7059 -81.7509 179° South  Level FlightAware Approximate
Fri 10:44:00 AM 24.6653 -81.7504 179° South  Level FlightAware Approximate
Fri 10:45:00 AM 24.6248 -81.7538 180° South  Level Estimated
Fri 10:46:00 AM 24.5843 -81.7517 177° South  Level FlightAware Approximate
Fri 10:47:00 AM 24.5500 -81.7500 180° South  Level FlightAware Approximate
Fri 10:48:00 AM 24.5561 -81.7596 North  Level Estimated
Fri 10:49:00 AM 24.5561 -81.7596 125° Southeast  Level Estimated
Fri 10:50:00 AM 24.5561 -81.7596 180° South  Level Estimated
Fri 10:51:00 AM 24.5561 -81.7596 125° Southeast  Level Estimated
Fri 10:52:00 AM 24.5561 -81.7596 125° Southeast  Level Estimated
Fri 10:53:00 AM 24.5561 -81.7596 180° South  Level Estimated
Fri 10:54:00 AM 24.5561 -81.7596 125° Southeast  Level Estimated
Fri 10:55:00 AM 24.5561 -81.7596 125° Southeast  Level Estimated
Fri 10:56:00 AM 24.5561 -81.7596 180° South  Level Estimated
Fri 10:57:00 AM 24.5561 -81.7596 125° Southeast  Level Estimated
Fri 10:58:00 AM 24.5561 -81.7596 125° Southeast  Level Estimated
Fri 10:59:00 AM 24.5561 -81.7596 180° South  Level Estimated
Fri 11:00:00 AM 24.5561 -81.7596 125° Southeast  Level Estimated

Login

Don't have an account? Register now (free) for customized features, flight alerts, and more!